Time;durP1;ratioP1;P1;durP2;ratioP2;P2;SDS_P1;SDS_P2;PMS_P1;PMS_P2;Temp;Humidity;BMP_temperature;BMP_pressure;BME280_temperature;BME280_humidity;BME280_pressure;Samples;Min_cycle;Max_cycle;Signal;HPM_P1;HPM_P2
2021/03/08 00:00:39;;;;;;;;;;;11.50;69.20;;;;;;4950983;28;76267;-67
2021/03/08 00:03:05;;;;;;;;;;;11.60;69.20;;;;;;4950358;28;77783;-68
2021/03/08 00:05:31;;;;;;;;;;;11.50;69.10;;;;;;4951694;28;75383;-68
2021/03/08 00:07:57;;;;;;;;;;;11.50;69.00;;;;;;4951855;28;75718;-67
2021/03/08 00:10:22;;;;;;;;;;;11.60;69.00;;;;;;4951316;28;75318;-68
2021/03/08 00:12:49;;;;;;;;;;;11.50;69.10;;;;;;4950818;28;76992;-68
2021/03/08 00:15:15;;;;;;;;;;;11.50;69.20;;;;;;4951566;28;75183;-68
2021/03/08 00:17:41;;;;;;;;;;;11.50;69.40;;;;;;4950401;28;76579;-69
2021/03/08 00:20:08;;;;;;;;;;;11.50;69.40;;;;;;4951960;28;74418;-66
2021/03/08 00:22:33;;;;;;;;;;;11.50;69.60;;;;;;4950172;28;77336;-67
2021/03/08 00:24:59;;;;;;;;;;;11.40;69.60;;;;;;4951906;28;75501;-67
2021/03/08 00:27:24;;;;;;;;;;;11.40;69.80;;;;;;4950402;28;77071;-66
2021/03/08 00:29:50;;;;;;;;;;;11.40;69.90;;;;;;4951648;28;74478;-67
2021/03/08 00:32:16;;;;;;;;;;;11.30;70.00;;;;;;4950434;28;76145;-66
2021/03/08 00:34:41;;;;;;;;;;;11.30;70.00;;;;;;4951749;28;74556;-65
2021/03/08 00:37:07;;;;;;;;;;;11.20;70.00;;;;;;4951598;28;75118;-65
2021/03/08 00:39:32;;;;;;;;;;;11.30;70.00;;;;;;4949743;28;77089;-66
2021/03/08 00:41:58;;;;;;;;;;;11.20;69.90;;;;;;4950257;28;77062;-67
2021/03/08 00:44:24;;;;;;;;;;;11.20;70.10;;;;;;4951320;28;74874;-67
2021/03/08 00:46:49;;;;;;;;;;;11.20;70.00;;;;;;4951909;28;74387;-67
2021/03/08 00:49:15;;;;;;;;;;;11.20;69.90;;;;;;4949812;28;75564;-66
2021/03/08 00:51:40;;;;;;;;;;;11.10;69.80;;;;;;4950912;28;74969;-66
2021/03/08 00:54:06;;;;;;;;;;;11.00;70.00;;;;;;4951147;28;75122;-66
2021/03/08 00:56:32;;;;;;;;;;;11.00;70.80;;;;;;4949655;28;77194;-65
2021/03/08 00:58:58;;;;;;;;;;;10.90;71.20;;;;;;4951008;28;75187;-67
2021/03/08 01:01:24;;;;;;;;;;;10.80;71.40;;;;;;4950339;28;75016;-66
2021/03/08 01:03:49;;;;;;;;;;;10.70;71.30;;;;;;4950919;28;74957;-65
2021/03/08 01:06:15;;;;;;;;;;;10.60;71.40;;;;;;4950947;28;75036;-65
2021/03/08 01:08:40;;;;;;;;;;;10.50;71.50;;;;;;4950557;28;75105;-65
2021/03/08 01:11:06;;;;;;;;;;;10.50;71.50;;;;;;4949687;28;74716;-67
2021/03/08 01:13:31;;;;;;;;;;;10.40;71.50;;;;;;4950863;28;75360;-67
2021/03/08 01:15:57;;;;;;;;;;;10.40;71.70;;;;;;4950905;28;75193;-66
2021/03/08 01:18:23;;;;;;;;;;;10.40;71.90;;;;;;4950695;28;75163;-67
2021/03/08 01:20:49;;;;;;;;;;;10.40;72.00;;;;;;4951341;28;74502;-65
2021/03/08 01:23:14;;;;;;;;;;;10.30;71.80;;;;;;4951001;28;74743;-65
2021/03/08 01:25:40;;;;;;;;;;;10.20;71.80;;;;;;4950850;28;75087;-65
2021/03/08 01:28:07;;;;;;;;;;;10.30;71.90;;;;;;4949494;28;76917;-65
2021/03/08 01:30:35;;;;;;;;;;;10.20;71.90;;;;;;4949364;28;75558;-65
2021/03/08 01:33:01;;;;;;;;;;;10.20;72.20;;;;;;4950497;28;75728;-66
2021/03/08 01:35:27;;;;;;;;;;;10.10;72.20;;;;;;4949458;28;77401;-65
2021/03/08 01:37:52;;;;;;;;;;;10.10;72.60;;;;;;4950603;28;75008;-65
2021/03/08 01:40:18;;;;;;;;;;;10.00;72.40;;;;;;4950767;28;74959;-65
2021/03/08 01:42:44;;;;;;;;;;;10.00;72.30;;;;;;4950469;28;75200;-66
2021/03/08 01:45:17;;;;;;;;;;;10.00;72.40;;;;;;4948927;28;77898;-65
2021/03/08 01:47:43;;;;;;;;;;;9.90;72.70;;;;;;4948960;28;77208;-66
2021/03/08 01:50:20;;;;;;;;;;;9.80;72.60;;;;;;4950612;28;75248;-66
2021/03/08 01:52:46;;;;;;;;;;;9.80;72.80;;;;;;4949941;28;75147;-66
2021/03/08 01:55:12;;;;;;;;;;;9.70;72.80;;;;;;4950505;28;75067;-65
2021/03/08 01:57:38;;;;;;;;;;;9.70;72.80;;;;;;4950545;28;74429;-65
2021/03/08 02:00:04;;;;;;;;;;;9.60;72.90;;;;;;4950172;28;75113;-66
2021/03/08 02:02:30;;;;;;;;;;;9.50;72.90;;;;;;4948987;28;78149;-67
2021/03/08 02:04:55;;;;;;;;;;;9.50;73.00;;;;;;4950381;28;74597;-67
2021/03/08 02:07:21;;;;;;;;;;;9.50;73.20;;;;;;4950127;28;75413;-66
2021/03/08 02:09:46;;;;;;;;;;;9.40;73.10;;;;;;4949960;28;75846;-67
2021/03/08 02:12:15;;;;;;;;;;;9.40;73.00;;;;;;4949945;28;75184;-68
2021/03/08 02:15:04;;;;;;;;;;;9.40;73.10;;;;;;4952471;28;74424;-67
2021/03/08 02:17:43;;;;;;;;;;;9.40;73.10;;;;;;4950230;28;77877;-69
2021/03/08 02:20:12;;;;;;;;;;;9.40;72.90;;;;;;4953099;28;75223;-66
2021/03/08 02:22:56;;;;;;;;;;;9.40;72.90;;;;;;4951571;28;77694;-67
2021/03/08 02:25:22;;;;;;;;;;;9.40;72.90;;;;;;4952782;28;76204;-67
2021/03/08 02:28:06;;;;;;;;;;;9.40;72.90;;;;;;4952929;28;74909;-66
2021/03/08 02:30:36;;;;;;;;;;;9.30;72.80;;;;;;4953235;28;75152;-66
2021/03/08 02:33:04;;;;;;;;;;;9.30;72.90;;;;;;4952873;28;75189;-68
2021/03/08 02:35:31;;;;;;;;;;;9.20;73.00;;;;;;4952819;28;75295;-67
2021/03/08 02:37:58;;;;;;;;;;;9.30;73.10;;;;;;4953047;28;75023;-68
2021/03/08 02:40:26;;;;;;;;;;;9.20;73.10;;;;;;4952483;28;75476;-67
2021/03/08 02:42:53;;;;;;;;;;;9.20;73.20;;;;;;4952789;28;75083;-67
2021/03/08 02:45:20;;;;;;;;;;;9.20;73.30;;;;;;4952751;28;75177;-66
2021/03/08 02:47:47;;;;;;;;;;;9.20;73.40;;;;;;4952581;28;75890;-67
2021/03/08 02:50:13;;;;;;;;;;;9.20;73.40;;;;;;4951751;28;77090;-67
2021/03/08 02:52:42;;;;;;;;;;;9.20;73.30;;;;;;4952297;28;75258;-67
2021/03/08 02:55:09;;;;;;;;;;;9.10;73.30;;;;;;4951643;28;77326;-70
2021/03/08 02:57:37;;;;;;;;;;;9.20;73.30;;;;;;4953239;28;74812;-68
2021/03/08 03:00:13;;;;;;;;;;;9.20;73.20;;;;;;4952652;28;74868;-69
2021/03/08 03:02:39;;;;;;;;;;;9.20;73.20;;;;;;4950673;28;77992;-68
2021/03/08 03:05:06;;;;;;;;;;;9.20;73.10;;;;;;4952688;28;75367;-68
2021/03/08 03:07:33;;;;;;;;;;;9.20;73.10;;;;;;4952445;28;75273;-67
2021/03/08 03:09:59;;;;;;;;;;;9.20;73.20;;;;;;4950819;28;76239;-65
2021/03/08 03:12:25;;;;;;;;;;;9.20;73.10;;;;;;4952431;28;75140;-65
2021/03/08 03:14:52;;;;;;;;;;;9.20;73.40;;;;;;4952383;28;74356;-66
2021/03/08 03:17:17;;;;;;;;;;;9.10;73.70;;;;;;4952750;28;74475;-64
2021/03/08 03:19:46;;;;;;;;;;;9.00;73.70;;;;;;4952816;28;74626;-67
2021/03/08 03:22:12;;;;;;;;;;;9.00;73.90;;;;;;4950723;28;77525;-66
2021/03/08 03:24:38;;;;;;;;;;;8.90;74.20;;;;;;4951872;28;75186;-68
2021/03/08 03:27:04;;;;;;;;;;;8.90;74.40;;;;;;4952700;28;74476;-69
2021/03/08 03:29:39;;;;;;;;;;;8.70;74.70;;;;;;4952261;28;75254;-67
2021/03/08 03:32:05;;;;;;;;;;;8.60;75.00;;;;;;4950844;28;77156;-68
2021/03/08 03:34:31;;;;;;;;;;;8.60;75.00;;;;;;4952131;28;75227;-67
2021/03/08 03:36:58;;;;;;;;;;;8.50;75.20;;;;;;4952191;28;75083;-68
2021/03/08 03:39:24;;;;;;;;;;;8.50;75.10;;;;;;4950656;28;75951;-68
2021/03/08 03:41:49;;;;;;;;;;;8.40;74.90;;;;;;4952325;28;74606;-68
2021/03/08 03:44:15;;;;;;;;;;;8.40;75.20;;;;;;4952062;28;75024;-68
2021/03/08 03:46:41;;;;;;;;;;;8.40;75.40;;;;;;4952077;28;75179;-69
2021/03/08 03:49:07;;;;;;;;;;;8.30;75.30;;;;;;4950393;28;76340;-67
2021/03/08 03:51:33;;;;;;;;;;;8.20;75.30;;;;;;4952272;28;75509;-67
2021/03/08 03:53:59;;;;;;;;;;;8.30;75.00;;;;;;4951758;28;74922;-70
2021/03/08 03:56:27;;;;;;;;;;;8.30;74.90;;;;;;4951902;28;74998;-69
2021/03/08 03:58:55;;;;;;;;;;;8.30;74.90;;;;;;4951924;28;75168;-70
2021/03/08 04:01:22;;;;;;;;;;;8.30;75.00;;;;;;4951901;28;74373;-66
2021/03/08 04:03:58;;;;;;;;;;;8.30;75.30;;;;;;4950632;28;75388;-65
2021/03/08 04:06:29;;;;;;;;;;;8.40;75.10;;;;;;4951831;28;75115;-67
2021/03/08 04:08:57;;;;;;;;;;;8.40;75.10;;;;;;4951784;28;75258;-66
2021/03/08 04:11:26;;;;;;;;;;;8.40;75.00;;;;;;4951837;28;74565;-66
2021/03/08 04:13:53;;;;;;;;;;;8.50;74.70;;;;;;4951728;28;74430;-66
2021/03/08 04:16:18;;;;;;;;;;;8.60;74.50;;;;;;4952514;28;74481;-67
2021/03/08 04:18:47;;;;;;;;;;;8.70;74.10;;;;;;4951411;28;75061;-68
2021/03/08 04:21:13;;;;;;;;;;;8.80;73.80;;;;;;4950420;28;74446;-68
2021/03/08 04:23:39;;;;;;;;;;;8.90;73.60;;;;;;4950460;28;77670;-68
2021/03/08 04:26:06;;;;;;;;;;;8.90;73.30;;;;;;4951583;28;75216;-66
2021/03/08 04:28:31;;;;;;;;;;;8.90;73.00;;;;;;4951779;28;75817;-66
2021/03/08 04:30:57;;;;;;;;;;;8.90;72.90;;;;;;4950032;28;77494;-67
2021/03/08 04:33:23;;;;;;;;;;;8.90;73.00;;;;;;4934058;28;75431;-66
2021/03/08 04:35:49;;;;;;;;;;;8.80;73.00;;;;;;4950517;28;75382;-66
2021/03/08 04:38:16;;;;;;;;;;;8.70;73.10;;;;;;4951248;28;75355;-64
2021/03/08 04:40:42;;;;;;;;;;;8.60;73.50;;;;;;4950174;28;75755;-66
2021/03/08 04:43:08;;;;;;;;;;;8.60;73.70;;;;;;4951620;28;75263;-65
2021/03/08 04:45:34;;;;;;;;;;;8.60;74.00;;;;;;4949935;28;75308;-64
2021/03/08 04:48:01;;;;;;;;;;;8.60;74.10;;;;;;4951455;28;75141;-66
2021/03/08 04:50:27;;;;;;;;;;;8.70;74.30;;;;;;4949885;28;77184;-65
2021/03/08 04:52:53;;;;;;;;;;;8.80;74.50;;;;;;4949444;28;75779;-67
2021/03/08 04:55:21;;;;;;;;;;;8.90;74.40;;;;;;4951392;28;75109;-68
2021/03/08 04:57:46;;;;;;;;;;;8.90;74.30;;;;;;4949840;28;75536;-67
2021/03/08 05:00:13;;;;;;;;;;;9.00;74.20;;;;;;4951691;28;74414;-67
2021/03/08 05:02:40;;;;;;;;;;;9.10;73.90;;;;;;4950707;28;75240;-66
2021/03/08 05:05:07;;;;;;;;;;;9.20;73.70;;;;;;4951775;28;74427;-65
2021/03/08 05:07:34;;;;;;;;;;;9.20;73.40;;;;;;4949816;28;76739;-65
2021/03/08 05:10:01;;;;;;;;;;;9.20;73.20;;;;;;4951091;28;74563;-65
2021/03/08 05:12:27;;;;;;;;;;;9.10;73.00;;;;;;4949756;28;77170;-66
2021/03/08 05:14:53;;;;;;;;;;;9.00;72.90;;;;;;4950896;28;75204;-65
2021/03/08 05:17:19;;;;;;;;;;;9.00;72.90;;;;;;4950842;28;75323;-66
2021/03/08 05:19:46;;;;;;;;;;;8.90;72.90;;;;;;4949689;28;78109;-66
2021/03/08 05:22:13;;;;;;;;;;;8.80;73.10;;;;;;4950799;28;75019;-65
2021/03/08 05:24:40;;;;;;;;;;;8.70;73.20;;;;;;4950970;28;75233;-66
2021/03/08 05:27:08;;;;;;;;;;;8.60;73.30;;;;;;4951001;28;75778;-66
2021/03/08 05:29:38;;;;;;;;;;;8.50;73.60;;;;;;4950963;28;75132;-65
2021/03/08 05:32:06;;;;;;;;;;;8.40;73.80;;;;;;4949054;28;78347;-66
2021/03/08 05:34:32;;;;;;;;;;;8.40;74.20;;;;;;4950768;28;76690;-65
2021/03/08 05:36:58;;;;;;;;;;;8.20;74.20;;;;;;4951382;28;74530;-65
2021/03/08 05:39:24;;;;;;;;;;;8.20;74.20;;;;;;4950651;28;75191;-66
2021/03/08 05:42:08;;;;;;;;;;;8.20;74.10;;;;;;4951114;28;75170;-66
2021/03/08 05:44:34;;;;;;;;;;;8.10;74.10;;;;;;4950571;28;75031;-66
2021/03/08 05:47:17;;;;;;;;;;;8.10;74.10;;;;;;4950477;28;75171;-66
2021/03/08 05:50:09;;;;;;;;;;;8.10;74.20;;;;;;4949064;28;77145;-64
2021/03/08 05:52:53;;;;;;;;;;;8.10;74.20;;;;;;4956694;28;74669;-67
2021/03/08 05:55:37;;;;;;;;;;;8.00;74.20;;;;;;4949141;28;74378;-66
2021/03/08 05:58:21;;;;;;;;;;;8.00;74.30;;;;;;4950977;28;74563;-66
2021/03/08 06:00:54;;;;;;;;;;;8.00;74.60;;;;;;4950374;28;75212;-66
2021/03/08 06:03:38;;;;;;;;;;;8.00;74.50;;;;;;4950513;28;75191;-66
2021/03/08 06:06:04;;;;;;;;;;;7.90;74.80;;;;;;4950510;28;75194;-66
2021/03/08 06:08:36;;;;;;;;;;;7.90;75.00;;;;;;4949207;28;75579;-67
2021/03/08 06:11:08;;;;;;;;;;;7.90;75.20;;;;;;4950788;28;74371;-66
2021/03/08 06:13:36;;;;;;;;;;;7.90;75.00;;;;;;4948953;28;77256;-66
2021/03/08 06:16:05;;;;;;;;;;;7.90;74.90;;;;;;4950330;28;74596;-66
2021/03/08 06:18:33;;;;;;;;;;;7.90;74.80;;;;;;4949735;28;75228;-66
2021/03/08 06:21:00;;;;;;;;;;;7.90;74.80;;;;;;4950246;28;75241;-66
2021/03/08 06:23:26;;;;;;;;;;;7.90;74.80;;;;;;4948822;28;77286;-68
2021/03/08 06:25:55;;;;;;;;;;;8.00;74.70;;;;;;4949291;28;76196;-69
2021/03/08 06:28:21;;;;;;;;;;;8.00;74.60;;;;;;4948890;28;76079;-64
2021/03/08 06:30:48;;;;;;;;;;;8.00;74.60;;;;;;4948668;28;76475;-67
2021/03/08 06:33:14;;;;;;;;;;;8.00;74.70;;;;;;4941009;28;75265;-66
2021/03/08 06:35:40;;;;;;;;;;;8.00;74.90;;;;;;4934138;28;77754;-66
2021/03/08 06:38:07;;;;;;;;;;;7.90;75.00;;;;;;4927776;28;76312;-66
2021/03/08 06:40:32;;;;;;;;;;;8.00;74.90;;;;;;4925818;28;77286;-65
2021/03/08 06:42:58;;;;;;;;;;;8.00;74.80;;;;;;4923694;28;75678;-66
2021/03/08 06:45:24;;;;;;;;;;;7.90;74.80;;;;;;4925397;28;75771;-65
2021/03/08 06:47:49;;;;;;;;;;;7.90;74.90;;;;;;4922678;28;78615;-65
2021/03/08 06:50:15;;;;;;;;;;;7.90;75.00;;;;;;4922260;28;75254;-65
2021/03/08 06:52:42;;;;;;;;;;;7.90;74.90;;;;;;4920739;28;75147;-67
2021/03/08 06:55:08;;;;;;;;;;;7.90;74.90;;;;;;4923285;28;76016;-66
2021/03/08 06:57:38;;;;;;;;;;;8.00;75.00;;;;;;4923458;28;76411;-65
2021/03/08 07:00:08;;;;;;;;;;;8.00;74.90;;;;;;4942706;28;76192;-65
2021/03/08 07:02:38;;;;;;;;;;;8.00;74.80;;;;;;4931550;28;76403;-66
2021/03/08 07:05:04;;;;;;;;;;;8.00;75.00;;;;;;4932404;28;75963;-65
2021/03/08 07:07:46;;;;;;;;;;;8.00;74.90;;;;;;4928342;28;75949;-68
2021/03/08 07:10:15;;;;;;;;;;;8.00;74.80;;;;;;4928950;28;77594;-62
2021/03/08 07:12:47;;;;;;;;;;;8.10;74.80;;;;;;4927626;28;76152;-64
2021/03/08 07:15:13;;;;;;;;;;;8.10;75.00;;;;;;4929275;28;76281;-69
2021/03/08 07:17:39;;;;;;;;;;;8.00;74.80;;;;;;4927563;28;77036;-66
2021/03/08 07:20:09;;;;;;;;;;;8.10;74.70;;;;;;4932545;28;75613;-62
2021/03/08 07:22:35;;;;;;;;;;;8.00;74.70;;;;;;4931981;28;76974;-63
2021/03/08 07:25:02;;;;;;;;;;;8.10;74.50;;;;;;4926041;28;75913;-63
2021/03/08 07:27:41;;;;;;;;;;;8.10;74.40;;;;;;4925182;28;76163;-63
2021/03/08 07:30:07;;;;;;;;;;;8.10;74.30;;;;;;4929243;28;75838;-63
2021/03/08 07:32:32;;;;;;;;;;;8.20;74.20;;;;;;4928851;28;77004;-62
2021/03/08 07:34:58;;;;;;;;;;;8.20;74.20;;;;;;4925903;28;77241;-61
2021/03/08 07:37:24;;;;;;;;;;;8.30;74.20;;;;;;4921331;28;75926;-61
2021/03/08 07:39:50;;;;;;;;;;;8.40;74.00;;;;;;4927576;28;76025;-61
2021/03/08 07:42:16;;;;;;;;;;;8.40;73.70;;;;;;4926604;28;76773;-62
2021/03/08 07:44:49;;;;;;;;;;;8.60;73.40;;;;;;4926718;28;75868;-61
2021/03/08 07:47:15;;;;;;;;;;;8.60;73.00;;;;;;4924627;28;77223;-67
2021/03/08 07:49:41;;;;;;;;;;;8.80;72.60;;;;;;4924008;28;75773;-67
2021/03/08 07:52:08;;;;;;;;;;;8.80;72.30;;;;;;4921946;28;77232;-65
2021/03/08 07:54:52;;;;;;;;;;;9.00;72.30;;;;;;4931090;28;77636;-64
2021/03/08 07:57:18;;;;;;;;;;;9.20;71.80;;;;;;4924826;28;78374;-65
2021/03/08 07:59:43;;;;;;;;;;;9.40;70.90;;;;;;4926685;28;75495;-65
2021/03/08 08:02:09;;;;;;;;;;;9.40;70.10;;;;;;4931072;28;76391;-65
2021/03/08 08:04:35;;;;;;;;;;;9.50;69.80;;;;;;4935378;28;75779;-68
2021/03/08 08:07:07;;;;;;;;;;;9.50;69.70;;;;;;4924558;28;75968;-66
2021/03/08 08:09:40;;;;;;;;;;;9.50;69.40;;;;;;4928479;28;76686;-66
2021/03/08 08:12:09;;;;;;;;;;;9.40;69.50;;;;;;4921034;28;78037;-65
2021/03/08 08:14:38;;;;;;;;;;;9.50;69.60;;;;;;4919053;28;76624;-65
2021/03/08 08:17:04;;;;;;;;;;;9.50;69.70;;;;;;4924078;28;75411;-65
2021/03/08 08:19:31;;;;;;;;;;;9.50;70.00;;;;;;4927782;28;76572;-65
2021/03/08 08:21:58;;;;;;;;;;;9.60;70.10;;;;;;4925994;28;76822;-65
2021/03/08 08:24:26;;;;;;;;;;;9.60;70.00;;;;;;4929576;28;76243;-67
2021/03/08 08:26:55;;;;;;;;;;;9.60;70.10;;;;;;4930091;28;77247;-67
2021/03/08 08:29:24;;;;;;;;;;;9.60;70.20;;;;;;4924444;28;76412;-71
2021/03/08 08:31:59;;;;;;;;;;;9.70;70.30;;;;;;4928073;28;76556;-65
2021/03/08 08:34:44;;;;;;;;;;;9.70;70.40;;;;;;4928871;28;76712;-66
2021/03/08 08:37:15;;;;;;;;;;;9.70;70.40;;;;;;4925206;28;75147;-66
2021/03/08 08:39:44;;;;;;;;;;;9.80;70.50;;;;;;4929395;28;76640;-67
2021/03/08 08:42:13;;;;;;;;;;;9.80;70.50;;;;;;4936165;28;76330;-68
2021/03/08 08:44:39;;;;;;;;;;;9.90;70.80;;;;;;4929396;28;76853;-65
2021/03/08 08:47:24;;;;;;;;;;;9.90;70.80;;;;;;4925065;28;78129;-65
2021/03/08 08:49:51;;;;;;;;;;;10.00;71.00;;;;;;4929114;28;75955;-67
2021/03/08 08:52:17;;;;;;;;;;;10.00;71.10;;;;;;4923271;28;75616;-65
2021/03/08 08:54:52;;;;;;;;;;;10.10;71.00;;;;;;4926067;28;77897;-67
2021/03/08 08:57:21;;;;;;;;;;;10.20;70.80;;;;;;4927843;28;77735;-67
2021/03/08 09:00:07;;;;;;;;;;;10.40;70.60;;;;;;4931630;28;76444;-67
2021/03/08 09:02:33;;;;;;;;;;;10.50;70.40;;;;;;4922275;28;76145;-68
2021/03/08 09:04:59;;;;;;;;;;;10.60;69.90;;;;;;4921619;28;75167;-67
2021/03/08 09:07:28;;;;;;;;;;;10.70;69.70;;;;;;4933854;28;77354;-67
2021/03/08 09:09:57;;;;;;;;;;;10.80;69.60;;;;;;4921501;28;94063;-67
2021/03/08 09:12:25;;;;;;;;;;;10.90;69.30;;;;;;4929998;28;75374;-67
2021/03/08 09:14:55;;;;;;;;;;;11.00;68.90;;;;;;4919145;28;76832;-67
2021/03/08 09:17:23;;;;;;;;;;;11.20;68.30;;;;;;4926853;28;77231;-66
2021/03/08 09:19:54;;;;;;;;;;;11.40;67.90;;;;;;4921109;28;76026;-67
2021/03/08 09:22:20;;;;;;;;;;;11.60;67.20;;;;;;4932035;28;76127;-67
2021/03/08 09:24:45;;;;;;;;;;;11.70;66.60;;;;;;4930141;28;76674;-67
2021/03/08 09:27:20;;;;;;;;;;;11.90;66.30;;;;;;4932338;28;75856;-69
2021/03/08 09:29:45;;;;;;;;;;;12.00;65.90;;;;;;4922880;28;77194;-68
2021/03/08 09:32:11;;;;;;;;;;;12.00;65.60;;;;;;4935575;28;76143;-67
2021/03/08 09:34:36;;;;;;;;;;;12.10;65.40;;;;;;4931300;28;75122;-67
2021/03/08 09:37:02;;;;;;;;;;;12.20;65.10;;;;;;4929055;28;76033;-67
2021/03/08 09:39:28;;;;;;;;;;;12.20;64.90;;;;;;4925057;28;77558;-67
2021/03/08 09:41:53;;;;;;;;;;;12.20;65.20;;;;;;4927059;28;76115;-68
2021/03/08 09:44:19;;;;;;;;;;;12.20;65.20;;;;;;4926542;28;75894;-73
2021/03/08 09:46:56;;;;;;;;;;;12.30;65.20;;;;;;4933313;28;77065;-69
2021/03/08 09:49:22;;;;;;;;;;;12.40;65.00;;;;;;4930162;28;76168;-69
2021/03/08 09:51:48;;;;;;;;;;;12.40;64.00;;;;;;4916875;28;75981;-67
2021/03/08 09:54:13;;;;;;;;;;;12.40;64.10;;;;;;4915340;28;77281;-68
2021/03/08 09:56:42;;;;;;;;;;;12.50;64.20;;;;;;4917377;28;76274;-68
2021/03/08 09:59:11;;;;;;;;;;;12.60;64.10;;;;;;4930426;28;76709;-67
2021/03/08 10:01:37;;;;;;;;;;;12.80;63.80;;;;;;4934334;28;77104;-68
2021/03/08 10:04:03;;;;;;;;;;;13.00;63.20;;;;;;4922641;28;76225;-67
2021/03/08 10:06:30;;;;;;;;;;;13.10;62.70;;;;;;4917831;28;75075;-66
2021/03/08 10:08:56;;;;;;;;;;;13.20;62.00;;;;;;4924141;28;76365;-67
2021/03/08 10:11:26;;;;;;;;;;;13.40;61.70;;;;;;4935690;28;75615;-67
2021/03/08 10:13:52;;;;;;;;;;;13.50;61.40;;;;;;4935640;28;76003;-67
2021/03/08 10:16:22;;;;;;;;;;;13.50;61.00;;;;;;4922008;28;78038;-67
2021/03/08 10:18:47;;;;;;;;;;;13.70;60.90;;;;;;4927027;28;76614;-67
2021/03/08 10:21:13;;;;;;;;;;;13.90;60.40;;;;;;4919324;28;77081;-65
2021/03/08 10:23:38;;;;;;;;;;;13.90;59.90;;;;;;4931850;28;75704;-66
2021/03/08 10:26:05;;;;;;;;;;;13.90;59.90;;;;;;4934529;28;77469;-66
2021/03/08 10:28:38;;;;;;;;;;;13.90;60.00;;;;;;4921552;28;75210;-68
2021/03/08 10:31:04;;;;;;;;;;;14.10;59.80;;;;;;4931638;28;77233;-70
2021/03/08 10:33:30;;;;;;;;;;;14.20;58.60;;;;;;4923174;28;76422;-69
2021/03/08 10:35:56;;;;;;;;;;;14.20;58.60;;;;;;4924200;28;76611;-69
2021/03/08 10:38:27;;;;;;;;;;;14.40;59.00;;;;;;4935114;28;76661;-69
2021/03/08 10:40:54;;;;;;;;;;;14.70;58.40;;;;;;4939315;28;75130;-70
2021/03/08 10:43:24;;;;;;;;;;;15.10;57.40;;;;;;4930138;28;75251;-70
2021/03/08 10:45:51;;;;;;;;;;;15.40;56.70;;;;;;4928438;28;77382;-70
2021/03/08 10:48:17;;;;;;;;;;;15.70;56.00;;;;;;4935282;28;76109;-69
2021/03/08 10:50:47;;;;;;;;;;;15.90;55.00;;;;;;4922288;28;76477;-69
2021/03/08 10:53:13;;;;;;;;;;;16.00;55.00;;;;;;4924714;28;77292;-70
2021/03/08 10:55:39;;;;;;;;;;;16.20;54.60;;;;;;4934885;28;77779;-70
2021/03/08 10:58:05;;;;;;;;;;;16.30;54.00;;;;;;4937072;28;79580;-71
2021/03/08 11:00:31;;;;;;;;;;;16.40;54.10;;;;;;4923184;28;77245;-70
2021/03/08 11:02:59;;;;;;;;;;;16.30;53.80;;;;;;4931504;28;76161;-73
2021/03/08 11:05:25;;;;;;;;;;;16.30;53.70;;;;;;4936803;28;77608;-70
2021/03/08 11:07:51;;;;;;;;;;;16.40;53.60;;;;;;4926723;28;77284;-75
2021/03/08 11:10:32;;;;;;;;;;;16.50;52.40;;;;;;4920197;28;78941;-78
2021/03/08 11:13:01;;;;;;;;;;;16.50;52.90;;;;;;4926105;28;75836;-72
2021/03/08 11:15:27;;;;;;;;;;;16.70;53.00;;;;;;4942056;28;76215;-71
2021/03/08 11:17:53;;;;;;;;;;;17.10;52.40;;;;;;4932118;28;77496;-76
2021/03/08 11:20:21;;;;;;;;;;;17.50;51.00;;;;;;4935401;28;75834;-70
2021/03/08 11:23:03;;;;;;;;;;;17.90;50.60;;;;;;4936808;28;76197;-70
2021/03/08 11:25:40;;;;;;;;;;;18.40;49.00;;;;;;4930647;28;76086;-71
2021/03/08 11:28:15;;;;;;;;;;;19.30;47.50;;;;;;4925239;28;76037;-69
2021/03/08 11:30:45;;;;;;;;;;;19.70;45.00;;;;;;4928845;28;76330;-65
2021/03/08 11:33:11;;;;;;;;;;;19.60;46.00;;;;;;4935911;28;77326;-67
2021/03/08 11:35:37;;;;;;;;;;;20.10;45.20;;;;;;4938409;28;75654;-70
2021/03/08 11:38:07;;;;;;;;;;;20.40;44.40;;;;;;4936045;28;76784;-68
2021/03/08 11:40:34;;;;;;;;;;;20.40;44.90;;;;;;4925333;28;76528;-68
2021/03/08 11:43:00;;;;;;;;;;;20.70;43.50;;;;;;4916224;28;76267;-72
2021/03/08 11:45:26;;;;;;;;;;;20.50;43.10;;;;;;4916688;28;77521;-67
2021/03/08 11:47:53;;;;;;;;;;;20.30;42.50;;;;;;4919262;28;76346;-69
2021/03/08 11:50:19;;;;;;;;;;;20.40;42.80;;;;;;4935730;28;76406;-69
2021/03/08 11:52:45;;;;;;;;;;;20.20;43.40;;;;;;4933956;28;76060;-68
2021/03/08 11:55:11;;;;;;;;;;;20.00;43.40;;;;;;4924495;28;77157;-68
2021/03/08 11:57:37;;;;;;;;;;;20.30;42.10;;;;;;4924372;28;75673;-70
2021/03/08 12:00:05;;;;;;;;;;;20.70;41.30;;;;;;4931471;28;76625;-69
2021/03/08 12:02:30;;;;;;;;;;;21.60;41.60;;;;;;4926482;28;76470;-68
2021/03/08 12:04:56;;;;;;;;;;;22.50;39.80;;;;;;4920038;28;76435;-67
2021/03/08 12:07:21;;;;;;;;;;;22.50;38.00;;;;;;4923613;28;76576;-68
2021/03/08 12:09:48;;;;;;;;;;;22.50;39.50;;;;;;4924100;28;76069;-68
2021/03/08 12:12:14;;;;;;;;;;;23.50;38.00;;;;;;4927894;28;76464;-68
2021/03/08 12:14:40;;;;;;;;;;;24.50;36.80;;;;;;4923707;28;76334;-69
2021/03/08 12:17:05;;;;;;;;;;;24.90;34.60;;;;;;4929553;28;76500;-67
2021/03/08 12:19:31;;;;;;;;;;;25.20;34.60;;;;;;4929634;28;75832;-70
2021/03/08 12:21:57;;;;;;;;;;;25.90;33.50;;;;;;4926860;28;75807;-69
2021/03/08 12:24:22;;;;;;;;;;;27.00;31.50;;;;;;4923686;28;75881;-69
2021/03/08 12:26:48;;;;;;;;;;;27.60;29.90;;;;;;4932505;28;77292;-69
2021/03/08 12:29:14;;;;;;;;;;;27.40;31.20;;;;;;4938176;28;75824;-69
2021/03/08 12:31:39;;;;;;;;;;;27.50;31.10;;;;;;4931115;28;76500;-68
2021/03/08 12:34:05;;;;;;;;;;;26.80;31.20;;;;;;4908369;28;76485;-69
2021/03/08 12:36:31;;;;;;;;;;;25.90;33.30;;;;;;4933909;28;77394;-71
2021/03/08 12:38:56;;;;;;;;;;;26.00;32.90;;;;;;4922206;28;75785;-72
2021/03/08 12:41:22;;;;;;;;;;;25.70;33.40;;;;;;4931324;28;77471;-71
2021/03/08 12:43:49;;;;;;;;;;;25.10;33.20;;;;;;4927797;28;76211;-69
2021/03/08 12:46:15;;;;;;;;;;;24.20;35.40;;;;;;4933828;28;77405;-68
2021/03/08 12:48:40;;;;;;;;;;;23.50;35.50;;;;;;4926027;28;76285;-75
2021/03/08 12:51:06;;;;;;;;;;;23.90;36.30;;;;;;4923434;28;76076;-69
2021/03/08 12:53:31;;;;;;;;;;;25.70;32.80;;;;;;4925114;28;75815;-72
2021/03/08 12:55:57;;;;;;;;;;;26.80;32.00;;;;;;4933945;28;75792;-70
2021/03/08 12:58:23;;;;;;;;;;;27.20;30.10;;;;;;4935768;28;76163;-70
2021/03/08 13:00:48;;;;;;;;;;;26.80;31.50;;;;;;4918208;28;77597;-72
2021/03/08 13:03:14;;;;;;;;;;;26.40;30.60;;;;;;4918134;28;75909;-72
2021/03/08 13:05:39;;;;;;;;;;;25.90;32.50;;;;;;4925040;28;75837;-74
2021/03/08 13:08:05;;;;;;;;;;;26.00;30.70;;;;;;4922102;28;76308;-68
2021/03/08 13:10:31;;;;;;;;;;;26.10;31.40;;;;;;4918060;28;75103;-70
2021/03/08 13:12:57;;;;;;;;;;;25.60;32.20;;;;;;4928289;28;76690;-69
2021/03/08 13:15:23;;;;;;;;;;;25.50;33.20;;;;;;4936571;28;76627;-70
2021/03/08 13:17:48;;;;;;;;;;;25.80;32.90;;;;;;4937000;28;75241;-70
2021/03/08 13:20:15;;;;;;;;;;;27.60;31.30;;;;;;4931508;28;76217;-73
2021/03/08 13:22:41;;;;;;;;;;;29.40;29.80;;;;;;4926353;28;77176;-70
2021/03/08 13:25:10;;;;;;;;;;;29.80;28.10;;;;;;4935607;28;78100;-70
2021/03/08 13:27:36;;;;;;;;;;;29.80;28.10;;;;;;4918296;28;76432;-70
2021/03/08 13:30:05;;;;;;;;;;;30.40;27.60;;;;;;4928432;28;76051;-71
2021/03/08 13:32:31;;;;;;;;;;;30.90;27.60;;;;;;4936871;28;76646;-73
2021/03/08 13:34:57;;;;;;;;;;;30.90;27.10;;;;;;4917472;28;76269;-69
2021/03/08 13:37:23;;;;;;;;;;;29.70;26.90;;;;;;4923058;28;76782;-70
2021/03/08 13:39:48;;;;;;;;;;;28.70;28.10;;;;;;4933185;28;77013;-71
2021/03/08 13:42:14;;;;;;;;;;;28.70;28.10;;;;;;4925114;28;76080;-69
2021/03/08 13:44:40;;;;;;;;;;;27.90;28.80;;;;;;4923092;28;75783;-69
2021/03/08 13:47:05;;;;;;;;;;;26.70;27.50;;;;;;4929438;28;76223;-68
2021/03/08 13:49:31;;;;;;;;;;;25.60;30.30;;;;;;4928231;28;76345;-68
2021/03/08 13:51:56;;;;;;;;;;;24.80;31.60;;;;;;4926111;28;76337;-68
2021/03/08 13:54:22;;;;;;;;;;;24.30;33.50;;;;;;4936221;28;75744;-69
2021/03/08 13:56:48;;;;;;;;;;;24.40;33.40;;;;;;4919950;28;77145;-70
2021/03/08 13:59:13;;;;;;;;;;;25.90;30.80;;;;;;4917070;28;76750;-69
2021/03/08 14:01:39;;;;;;;;;;;26.10;30.20;;;;;;4924785;28;76365;-70
2021/03/08 14:04:05;;;;;;;;;;;26.60;30.40;;;;;;4948671;28;77051;-68
2021/03/08 14:06:30;;;;;;;;;;;26.60;29.00;;;;;;4950725;28;74467;-69
2021/03/08 14:08:56;;;;;;;;;;;25.40;30.70;;;;;;4953020;28;75186;-70
2021/03/08 14:11:23;;;;;;;;;;;23.50;32.00;;;;;;4957027;28;75004;-69
2021/03/08 14:13:48;;;;;;;;;;;21.70;33.40;;;;;;4956776;28;75806;-70
2021/03/08 14:16:14;;;;;;;;;;;20.40;36.20;;;;;;4955063;28;75308;-67
2021/03/08 14:18:40;;;;;;;;;;;19.60;38.30;;;;;;4956915;28;75257;-72
2021/03/08 14:21:05;;;;;;;;;;;19.20;39.10;;;;;;4957193;28;74475;-71
2021/03/08 14:23:31;;;;;;;;;;;18.60;39.20;;;;;;4956832;28;74619;-73
2021/03/08 14:25:57;;;;;;;;;;;18.20;40.20;;;;;;4956910;28;75716;-69